createdAt,value
2018-12-18T00:03:47.110Z,6.25
2018-12-18T00:08:50.307Z,6.19
2018-12-18T00:13:53.526Z,6.21
2018-12-18T00:18:56.744Z,6.22
2018-12-18T00:24:00.125Z,6.26
2018-12-18T00:29:03.426Z,6.31
2018-12-18T00:34:06.642Z,6.33
2018-12-18T00:39:14.677Z,6.38
2018-12-18T00:44:17.911Z,6.38
2018-12-18T00:49:21.158Z,6.38
2018-12-18T00:54:24.555Z,6.39
2018-12-18T00:59:28.298Z,6.41
2018-12-18T01:04:31.552Z,6.48
2018-12-18T01:09:34.770Z,6.42
2018-12-18T01:14:37.957Z,6.43
2018-12-18T01:19:41.150Z,6.43
2018-12-18T01:24:44.441Z,6.43
2018-12-18T01:29:47.706Z,6.45
2018-12-18T01:34:50.900Z,6.49
2018-12-18T01:39:54.125Z,6.49
2018-12-18T01:44:57.414Z,6.47
2018-12-18T01:50:00.614Z,6.54
2018-12-18T01:55:06.209Z,6.62
2018-12-18T02:00:09.393Z,6.57
2018-12-18T02:05:12.596Z,6.60
2018-12-18T02:10:15.848Z,6.64
2018-12-18T02:15:19.130Z,6.61
2018-12-18T02:20:22.325Z,6.56
2018-12-18T02:25:25.578Z,6.59
2018-12-18T02:30:28.805Z,6.57
2018-12-18T02:35:32.021Z,6.62
2018-12-18T02:40:35.272Z,6.60
2018-12-18T02:45:38.485Z,6.55
2018-12-18T02:50:41.693Z,6.54
2018-12-18T02:55:44.923Z,6.53
2018-12-18T03:00:48.202Z,6.53
2018-12-18T03:05:51.398Z,6.55
2018-12-18T03:10:54.701Z,6.58
2018-12-18T03:15:58.089Z,6.64
2018-12-18T03:21:01.323Z,6.66
2018-12-18T03:26:04.586Z,6.68
2018-12-18T03:31:07.777Z,6.74
2018-12-18T03:36:11.051Z,6.80
2018-12-18T03:41:14.217Z,6.72
2018-12-18T03:46:17.521Z,6.74
2018-12-18T03:51:20.794Z,6.63
2018-12-18T03:56:24.022Z,6.67
2018-12-18T04:01:27.263Z,6.65
2018-12-18T04:06:30.465Z,6.75
2018-12-18T04:11:35.653Z,6.75
2018-12-18T04:16:38.906Z,6.66
2018-12-18T04:21:42.109Z,6.57
2018-12-18T04:26:45.332Z,6.54
2018-12-18T04:31:48.515Z,6.60
2018-12-18T04:36:51.918Z,6.70
2018-12-18T04:41:55.106Z,6.64
2018-12-18T04:46:58.313Z,6.56
2018-12-18T04:52:01.590Z,6.60
2018-12-18T04:57:04.892Z,6.65
2018-12-18T05:02:08.078Z,6.65
2018-12-18T05:07:11.294Z,6.69
2018-12-18T05:12:14.559Z,6.71
2018-12-18T05:17:17.771Z,6.68
2018-12-18T05:22:20.981Z,6.60
2018-12-18T05:27:24.192Z,6.57
2018-12-18T05:32:27.385Z,6.50
2018-12-18T05:37:30.579Z,6.53
2018-12-18T05:42:33.786Z,6.61
2018-12-18T05:47:36.971Z,6.54
2018-12-18T05:52:40.148Z,6.50
2018-12-18T05:57:43.330Z,6.55
2018-12-18T06:02:46.517Z,6.51
2018-12-18T06:07:49.702Z,6.56
2018-12-18T06:12:52.893Z,6.57
2018-12-18T06:17:56.073Z,6.61
2018-12-18T06:22:59.389Z,6.64
2018-12-18T06:28:02.654Z,6.63
2018-12-18T06:33:05.860Z,6.63
2018-12-18T06:38:09.048Z,6.55
2018-12-18T06:43:12.222Z,6.30
2018-12-18T06:48:15.454Z,6.21
2018-12-18T06:53:18.633Z,6.17
2018-12-18T06:58:21.833Z,6.15
2018-12-18T07:03:25.005Z,6.07
2018-12-18T07:08:28.249Z,6.07
2018-12-18T07:13:31.565Z,6.08
2018-12-18T07:18:34.727Z,6.07
2018-12-18T07:23:37.896Z,6.04
2018-12-18T07:28:41.263Z,6.03
2018-12-18T07:33:44.434Z,6.09
2018-12-18T07:38:47.638Z,6.06
2018-12-18T07:43:50.813Z,6.13
2018-12-18T07:48:54.049Z,6.19
2018-12-18T07:53:57.239Z,6.19
2018-12-18T07:59:00.491Z,6.21
2018-12-18T08:04:03.782Z,6.15
2018-12-18T08:09:08.353Z,6.21
2018-12-18T08:14:11.630Z,6.30
2018-12-18T08:19:14.822Z,6.29
2018-12-18T08:24:18.064Z,6.48
2018-12-18T08:29:21.257Z,6.62
2018-12-18T08:34:24.477Z,6.58
2018-12-18T08:39:27.689Z,6.58
2018-12-18T08:44:30.857Z,6.57
2018-12-18T08:49:34.035Z,6.58
2018-12-18T08:54:37.233Z,6.71
2018-12-18T08:59:40.441Z,6.78
2018-12-18T09:04:43.653Z,6.78
2018-12-18T09:09:46.841Z,6.89
2018-12-18T09:14:55.561Z,6.88
2018-12-18T09:19:58.856Z,7.01
2018-12-18T09:25:02.073Z,7.03
2018-12-18T09:30:07.257Z,7.08
2018-12-18T09:35:10.479Z,7.15
2018-12-18T09:40:15.645Z,7.23
2018-12-18T09:45:18.909Z,7.26
2018-12-18T09:50:22.169Z,7.22
2018-12-18T09:55:25.341Z,7.14
2018-12-18T10:00:28.613Z,7.10
2018-12-18T10:05:31.829Z,7.18
2018-12-18T10:10:35.027Z,7.26
2018-12-18T10:15:38.185Z,7.26
2018-12-18T10:20:41.366Z,7.26
2018-12-18T10:25:44.578Z,7.24
2018-12-18T10:30:47.774Z,7.32
2018-12-18T10:35:50.931Z,7.34
2018-12-18T10:40:54.111Z,7.33
2018-12-18T10:45:57.344Z,7.36
2018-12-18T10:51:00.538Z,7.56
2018-12-18T10:56:03.780Z,7.58
2018-12-18T11:01:12.353Z,7.87
2018-12-18T11:06:15.567Z,8.12
2018-12-18T11:11:18.749Z,8.18
2018-12-18T11:16:21.926Z,8.00
2018-12-18T11:21:26.022Z,8.14
2018-12-18T11:26:29.197Z,8.13
2018-12-18T11:31:32.368Z,8.07
2018-12-18T11:36:35.540Z,8.19
2018-12-18T11:41:38.729Z,8.13
2018-12-18T11:46:41.905Z,8.32
2018-12-18T11:51:45.099Z,8.68
2018-12-18T11:56:48.289Z,8.87
2018-12-18T12:01:51.606Z,9.11
2018-12-18T12:06:54.881Z,9.17
2018-12-18T12:11:58.114Z,9.56
2018-12-18T12:17:01.670Z,9.83
2018-12-18T12:22:04.977Z,9.63
2018-12-18T12:27:13.444Z,9.62
2018-12-18T12:32:16.737Z,9.33
2018-12-18T12:37:19.951Z,9.19
2018-12-18T12:42:23.130Z,9.33
2018-12-18T12:47:26.312Z,9.23
2018-12-18T12:52:29.498Z,9.66
2018-12-18T12:57:32.663Z,9.12
2018-12-18T13:02:35.830Z,9.06
2018-12-18T13:07:39.065Z,9.27
2018-12-18T13:12:42.250Z,9.54
2018-12-18T13:17:45.511Z,9.94
2018-12-18T13:22:48.683Z,10.22
2018-12-18T13:27:51.859Z,10.49
2018-12-18T13:32:55.042Z,10.17
2018-12-18T13:37:58.378Z,9.42
2018-12-18T13:43:01.554Z,8.78
2018-12-18T13:48:04.809Z,8.56
2018-12-18T13:53:07.986Z,8.53
2018-12-18T13:58:11.236Z,8.63
2018-12-18T14:03:14.407Z,8.37
2018-12-18T14:08:17.636Z,8.19
2018-12-18T14:13:20.827Z,8.06
2018-12-18T14:18:24.179Z,8.00
2018-12-18T14:23:27.348Z,8.11
2018-12-18T14:28:30.537Z,8.01
2018-12-18T14:33:33.792Z,7.78
2018-12-18T14:38:37.005Z,7.43
2018-12-18T14:43:40.239Z,7.28
2018-12-18T14:48:43.446Z,7.04
2018-12-18T14:53:46.653Z,6.77
2018-12-18T14:58:49.873Z,6.56
2018-12-18T15:03:53.097Z,6.84
2018-12-18T15:08:56.286Z,6.75
2018-12-18T15:13:59.484Z,6.76
2018-12-18T15:19:02.790Z,6.48
2018-12-18T15:24:06.106Z,6.54
2018-12-18T15:29:09.326Z,6.39
2018-12-18T15:34:12.501Z,6.20
2018-12-18T15:39:15.853Z,6.06
2018-12-18T15:44:19.081Z,6.05
2018-12-18T15:49:22.262Z,5.69
2018-12-18T15:54:25.455Z,5.66
2018-12-18T15:59:29.260Z,5.54
2018-12-18T16:04:32.446Z,5.59
2018-12-18T16:09:35.641Z,5.59
2018-12-18T16:14:38.846Z,5.58
2018-12-18T16:19:42.084Z,5.75
2018-12-18T16:24:45.284Z,5.45
2018-12-18T16:29:48.472Z,5.71
2018-12-18T16:34:51.737Z,5.73
2018-12-18T16:39:54.977Z,5.71
2018-12-18T16:44:58.157Z,5.42
2018-12-18T16:50:01.490Z,5.50
2018-12-18T16:55:05.859Z,5.33
2018-12-18T17:00:11.240Z,5.54
2018-12-18T17:05:14.427Z,5.53
2018-12-18T17:10:17.613Z,5.53
2018-12-18T17:15:20.807Z,5.35
2018-12-18T17:20:23.982Z,5.32
2018-12-18T17:25:27.173Z,5.22
2018-12-18T17:30:30.383Z,4.83
2018-12-18T17:35:33.666Z,5.03
2018-12-18T17:40:37.224Z,5.14
2018-12-18T17:45:40.401Z,4.87
2018-12-18T17:50:43.584Z,4.88
2018-12-18T17:55:46.748Z,4.95
2018-12-18T18:00:50.006Z,4.68
2018-12-18T18:05:53.181Z,4.70
2018-12-18T18:10:56.343Z,4.85
2018-12-18T18:15:59.510Z,4.85
2018-12-18T18:21:02.690Z,4.73
2018-12-18T18:26:05.969Z,4.20
2018-12-18T18:31:09.146Z,3.80
2018-12-18T18:36:12.325Z,4.01
2018-12-18T18:41:15.545Z,4.44
2018-12-18T18:46:18.785Z,4.01
2018-12-18T18:51:21.986Z,3.90
2018-12-18T18:56:25.453Z,3.86
2018-12-18T19:01:28.710Z,3.93
2018-12-18T19:06:32.089Z,3.97
2018-12-18T19:11:35.284Z,3.78
2018-12-18T19:16:38.505Z,3.93
2018-12-18T19:21:41.754Z,4.00
2018-12-18T19:26:44.955Z,4.02
2018-12-18T19:31:48.147Z,3.72
2018-12-18T19:36:51.413Z,4.06
2018-12-18T19:41:54.593Z,3.79
2018-12-18T19:46:57.785Z,3.70
2018-12-18T19:52:01.022Z,3.49
2018-12-18T19:57:04.423Z,3.48
2018-12-18T20:02:07.705Z,3.43
2018-12-18T20:07:10.899Z,3.54
2018-12-18T20:12:14.246Z,3.51
2018-12-18T20:17:17.724Z,3.65
2018-12-18T20:22:21.540Z,3.74
2018-12-18T20:27:24.763Z,3.51
2018-12-18T20:32:27.973Z,3.35
2018-12-18T20:37:31.162Z,3.47
2018-12-18T20:42:34.345Z,3.43
2018-12-18T20:47:37.637Z,3.54
2018-12-18T20:52:40.804Z,3.23
2018-12-18T20:57:43.989Z,3.16
2018-12-18T21:02:47.189Z,3.28
2018-12-18T21:07:50.871Z,3.26
2018-12-18T21:12:58.465Z,3.19
2018-12-18T21:18:02.001Z,3.21
2018-12-18T21:23:05.414Z,3.16
2018-12-18T21:28:08.800Z,3.41
2018-12-18T21:33:12.253Z,3.36
2018-12-18T21:38:15.664Z,3.17
2018-12-18T21:43:19.049Z,3.05
2018-12-18T21:48:22.485Z,3.21
2018-12-18T21:53:25.897Z,2.93
2018-12-18T21:58:29.281Z,3.11
2018-12-18T22:03:32.732Z,2.95
2018-12-18T22:08:36.910Z,2.95
2018-12-18T22:13:40.632Z,2.85
2018-12-18T22:18:44.069Z,2.77
2018-12-18T22:23:47.519Z,2.76
2018-12-18T22:28:50.698Z,2.72
2018-12-18T22:33:53.909Z,2.60
2018-12-18T22:38:57.218Z,2.63
2018-12-18T22:44:00.524Z,2.77
2018-12-18T22:49:03.701Z,2.64
2018-12-18T22:54:06.880Z,2.75
2018-12-18T22:59:10.124Z,3.05
2018-12-18T23:04:14.885Z,2.87
2018-12-18T23:09:18.166Z,2.83
2018-12-18T23:14:21.417Z,2.71
2018-12-18T23:19:24.757Z,2.83
2018-12-18T23:24:27.946Z,2.81
2018-12-18T23:29:31.183Z,2.85
2018-12-18T23:34:34.485Z,2.96
2018-12-18T23:39:37.684Z,2.70
2018-12-18T23:44:40.894Z,3.17
2018-12-18T23:49:44.855Z,2.95
2018-12-18T23:54:48.024Z,3.20
2018-12-18T23:59:51.188Z,2.86
